Aviation Digital Data Service (ADDS)

Output produced by TAFs form (0423 UTC 28 March 2017)
found at http://www.aviationweather.gov/adds/tafs/
 
KPOU 272345Z 2800/2824 VRB03KT P6SM SCT050 
     FM280200 00000KT 3SM BR SCT007 SCT015 
     FM280600 00000KT 1 1/2SM BR BKN007 OVC015 
     FM281300 VRB03KT 2SM -SHRA BR BKN007 OVC015